sensor_id;sensor_type;location;lat;lon;timestamp;temperature;humidity
7447;DHT22;3765;47.962;7.952;2023-08-30T00:00:10;13.10;82.80
7447;DHT22;3765;47.962;7.952;2023-08-30T00:02:39;12.90;82.90
7447;DHT22;3765;47.962;7.952;2023-08-30T00:05:07;12.80;83.00
7447;DHT22;3765;47.962;7.952;2023-08-30T00:07:36;12.80;82.90
7447;DHT22;3765;47.962;7.952;2023-08-30T00:10:06;12.80;82.90
7447;DHT22;3765;47.962;7.952;2023-08-30T00:12:34;12.80;82.80
7447;DHT22;3765;47.962;7.952;2023-08-30T00:15:03;12.80;82.90
7447;DHT22;3765;47.962;7.952;2023-08-30T00:21:36;12.70;82.90
7447;DHT22;3765;47.962;7.952;2023-08-30T00:24:04;12.70;83.10
7447;DHT22;3765;47.962;7.952;2023-08-30T00:26:33;12.80;83.00
7447;DHT22;3765;47.962;7.952;2023-08-30T00:29:01;12.70;82.80
7447;DHT22;3765;47.962;7.952;2023-08-30T00:31:29;12.80;82.80
7447;DHT22;3765;47.962;7.952;2023-08-30T00:33:58;12.80;82.70
7447;DHT22;3765;47.962;7.952;2023-08-30T00:36:26;12.80;82.70
7447;DHT22;3765;47.962;7.952;2023-08-30T00:38:56;12.80;82.80
7447;DHT22;3765;47.962;7.952;2023-08-30T00:41:24;12.80;82.80
7447;DHT22;3765;47.962;7.952;2023-08-30T00:43:52;12.80;82.80
7447;DHT22;3765;47.962;7.952;2023-08-30T00:46:20;12.80;82.80
7447;DHT22;3765;47.962;7.952;2023-08-30T00:48:48;12.70;82.80
7447;DHT22;3765;47.962;7.952;2023-08-30T00:51:17;12.60;83.00
7447;DHT22;3765;47.962;7.952;2023-08-30T00:53:45;12.60;83.00
7447;DHT22;3765;47.962;7.952;2023-08-30T00:56:15;12.50;82.90
7447;DHT22;3765;47.962;7.952;2023-08-30T00:58:43;12.40;83.00
7447;DHT22;3765;47.962;7.952;2023-08-30T01:01:11;12.40;83.20
7447;DHT22;3765;47.962;7.952;2023-08-30T01:03:41;12.40;83.20
7447;DHT22;3765;47.962;7.952;2023-08-30T01:06:09;12.40;83.30
7447;DHT22;3765;47.962;7.952;2023-08-30T01:08:37;12.30;83.30
7447;DHT22;3765;47.962;7.952;2023-08-30T01:11:13;12.30;83.30
7447;DHT22;3765;47.962;7.952;2023-08-30T01:13:49;12.30;83.40
7447;DHT22;3765;47.962;7.952;2023-08-30T01:16:19;12.20;83.50
7447;DHT22;3765;47.962;7.952;2023-08-30T01:18:49;12.20;83.50
7447;DHT22;3765;47.962;7.952;2023-08-30T01:21:27;12.20;83.50
7447;DHT22;3765;47.962;7.952;2023-08-30T01:23:59;12.20;83.50
7447;DHT22;3765;47.962;7.952;2023-08-30T01:26:38;12.20;83.50
7447;DHT22;3765;47.962;7.952;2023-08-30T01:29:11;12.20;83.60
7447;DHT22;3765;47.962;7.952;2023-08-30T01:31:41;12.20;83.60
7447;DHT22;3765;47.962;7.952;2023-08-30T01:34:10;12.10;83.60
7447;DHT22;3765;47.962;7.952;2023-08-30T01:36:40;12.10;83.70
7447;DHT22;3765;47.962;7.952;2023-08-30T01:39:10;12.00;83.60
7447;DHT22;3765;47.962;7.952;2023-08-30T01:41:39;12.00;83.70
7447;DHT22;3765;47.962;7.952;2023-08-30T01:44:09;12.00;83.70
7447;DHT22;3765;47.962;7.952;2023-08-30T01:46:39;12.00;83.80
7447;DHT22;3765;47.962;7.952;2023-08-30T01:49:08;12.00;83.90
7447;DHT22;3765;47.962;7.952;2023-08-30T01:51:37;11.90;83.80
7447;DHT22;3765;47.962;7.952;2023-08-30T01:54:07;11.90;83.80
7447;DHT22;3765;47.962;7.952;2023-08-30T01:56:36;11.90;83.70
7447;DHT22;3765;47.962;7.952;2023-08-30T01:59:04;11.80;83.80
7447;DHT22;3765;47.962;7.952;2023-08-30T02:01:34;11.90;83.90
7447;DHT22;3765;47.962;7.952;2023-08-30T02:04:02;11.90;83.70
7447;DHT22;3765;47.962;7.952;2023-08-30T02:06:34;11.80;83.80
7447;DHT22;3765;47.962;7.952;2023-08-30T02:09:09;11.80;83.90
7447;DHT22;3765;47.962;7.952;2023-08-30T02:11:39;11.80;84.00
7447;DHT22;3765;47.962;7.952;2023-08-30T02:14:11;11.80;84.00
7447;DHT22;3765;47.962;7.952;2023-08-30T02:16:46;11.80;84.00
7447;DHT22;3765;47.962;7.952;2023-08-30T02:19:15;11.70;83.90
7447;DHT22;3765;47.962;7.952;2023-08-30T02:21:47;11.70;84.00
7447;DHT22;3765;47.962;7.952;2023-08-30T02:24:16;11.70;84.10
7447;DHT22;3765;47.962;7.952;2023-08-30T02:26:44;11.70;84.10
7447;DHT22;3765;47.962;7.952;2023-08-30T02:29:12;11.70;84.10
7447;DHT22;3765;47.962;7.952;2023-08-30T02:31:40;11.70;84.10
7447;DHT22;3765;47.962;7.952;2023-08-30T02:34:10;11.70;84.10
7447;DHT22;3765;47.962;7.952;2023-08-30T02:36:38;11.70;84.10
7447;DHT22;3765;47.962;7.952;2023-08-30T02:39:06;11.80;84.10
7447;DHT22;3765;47.962;7.952;2023-08-30T02:41:35;11.80;84.20
7447;DHT22;3765;47.962;7.952;2023-08-30T02:44:03;11.70;84.00
7447;DHT22;3765;47.962;7.952;2023-08-30T02:46:31;11.80;84.10
7447;DHT22;3765;47.962;7.952;2023-08-30T02:49:00;11.80;84.00
7447;DHT22;3765;47.962;7.952;2023-08-30T02:51:29;11.80;84.00
7447;DHT22;3765;47.962;7.952;2023-08-30T02:53:57;11.80;84.00
7447;DHT22;3765;47.962;7.952;2023-08-30T02:56:25;11.80;84.00
7447;DHT22;3765;47.962;7.952;2023-08-30T02:58:54;11.70;83.90
7447;DHT22;3765;47.962;7.952;2023-08-30T03:01:22;11.60;84.00
7447;DHT22;3765;47.962;7.952;2023-08-30T03:03:50;11.60;84.00
7447;DHT22;3765;47.962;7.952;2023-08-30T03:06:18;11.50;84.10
7447;DHT22;3765;47.962;7.952;2023-08-30T03:08:48;11.50;84.10
7447;DHT22;3765;47.962;7.952;2023-08-30T03:11:16;11.50;84.20
7447;DHT22;3765;47.962;7.952;2023-08-30T03:13:44;11.40;84.20
7447;DHT22;3765;47.962;7.952;2023-08-30T03:16:13;11.40;84.20
7447;DHT22;3765;47.962;7.952;2023-08-30T03:18:42;11.40;84.20
7447;DHT22;3765;47.962;7.952;2023-08-30T03:21:11;11.30;84.20
7447;DHT22;3765;47.962;7.952;2023-08-30T03:23:39;11.30;84.30
7447;DHT22;3765;47.962;7.952;2023-08-30T03:26:09;11.30;84.40
7447;DHT22;3765;47.962;7.952;2023-08-30T03:28:38;11.40;84.40
7447;DHT22;3765;47.962;7.952;2023-08-30T03:31:14;11.40;84.40
7447;DHT22;3765;47.962;7.952;2023-08-30T03:33:42;11.30;84.40
7447;DHT22;3765;47.962;7.952;2023-08-30T03:36:12;11.40;84.50
7447;DHT22;3765;47.962;7.952;2023-08-30T03:38:41;11.40;84.50
7447;DHT22;3765;47.962;7.952;2023-08-30T03:41:11;11.30;84.40
7447;DHT22;3765;47.962;7.952;2023-08-30T03:43:39;11.30;84.50
7447;DHT22;3765;47.962;7.952;2023-08-30T03:46:07;11.30;84.40
7447;DHT22;3765;47.962;7.952;2023-08-30T03:48:36;11.30;84.50
7447;DHT22;3765;47.962;7.952;2023-08-30T03:51:05;11.30;84.50
7447;DHT22;3765;47.962;7.952;2023-08-30T03:53:33;11.30;84.40
7447;DHT22;3765;47.962;7.952;2023-08-30T03:56:01;11.30;84.50
7447;DHT22;3765;47.962;7.952;2023-08-30T03:58:32;11.20;84.50
7447;DHT22;3765;47.962;7.952;2023-08-30T04:01:00;11.20;84.50
7447;DHT22;3765;47.962;7.952;2023-08-30T04:03:28;11.20;84.50
7447;DHT22;3765;47.962;7.952;2023-08-30T04:05:56;11.20;84.60
7447;DHT22;3765;47.962;7.952;2023-08-30T04:08:25;11.20;84.60
7447;DHT22;3765;47.962;7.952;2023-08-30T04:10:54;11.20;84.60
7447;DHT22;3765;47.962;7.952;2023-08-30T04:13:22;11.20;84.70
7447;DHT22;3765;47.962;7.952;2023-08-30T04:15:52;11.20;84.70
7447;DHT22;3765;47.962;7.952;2023-08-30T04:18:21;11.20;84.70
7447;DHT22;3765;47.962;7.952;2023-08-30T04:20:49;11.10;84.70
7447;DHT22;3765;47.962;7.952;2023-08-30T04:23:17;11.10;84.70
7447;DHT22;3765;47.962;7.952;2023-08-30T04:25:45;11.20;84.70
7447;DHT22;3765;47.962;7.952;2023-08-30T04:28:13;11.20;84.70
7447;DHT22;3765;47.962;7.952;2023-08-30T04:30:41;11.20;84.70
7447;DHT22;3765;47.962;7.952;2023-08-30T04:33:11;11.30;84.70
7447;DHT22;3765;47.962;7.952;2023-08-30T04:35:39;11.30;84.60
7447;DHT22;3765;47.962;7.952;2023-08-30T04:38:07;11.30;84.50
7447;DHT22;3765;47.962;7.952;2023-08-30T04:40:36;11.30;84.60
7447;DHT22;3765;47.962;7.952;2023-08-30T04:43:04;11.40;84.50
7447;DHT22;3765;47.962;7.952;2023-08-30T04:45:34;11.50;84.30
7447;DHT22;3765;47.962;7.952;2023-08-30T04:48:03;11.60;84.20
7447;DHT22;3765;47.962;7.952;2023-08-30T04:50:32;11.50;84.20
7447;DHT22;3765;47.962;7.952;2023-08-30T04:53:01;11.50;84.30
7447;DHT22;3765;47.962;7.952;2023-08-30T04:55:29;11.50;84.20
7447;DHT22;3765;47.962;7.952;2023-08-30T04:57:57;11.50;84.30
7447;DHT22;3765;47.962;7.952;2023-08-30T05:00:25;11.50;84.20
7447;DHT22;3765;47.962;7.952;2023-08-30T05:02:54;11.40;84.20
7447;DHT22;3765;47.962;7.952;2023-08-30T05:05:22;11.40;84.30
7447;DHT22;3765;47.962;7.952;2023-08-30T05:07:51;11.40;84.40
7447;DHT22;3765;47.962;7.952;2023-08-30T05:10:20;11.40;84.50
7447;DHT22;3765;47.962;7.952;2023-08-30T05:12:48;11.50;84.50
7447;DHT22;3765;47.962;7.952;2023-08-30T05:15:19;11.50;84.40
7447;DHT22;3765;47.962;7.952;2023-08-30T05:17:47;11.40;84.30
7447;DHT22;3765;47.962;7.952;2023-08-30T05:20:15;11.50;84.50
7447;DHT22;3765;47.962;7.952;2023-08-30T05:22:44;11.60;84.60
7447;DHT22;3765;47.962;7.952;2023-08-30T05:25:13;11.70;84.50
7447;DHT22;3765;47.962;7.952;2023-08-30T05:27:42;11.70;84.20
7447;DHT22;3765;47.962;7.952;2023-08-30T05:30:11;11.60;84.20
7447;DHT22;3765;47.962;7.952;2023-08-30T05:32:39;11.70;84.40
7447;DHT22;3765;47.962;7.952;2023-08-30T05:35:08;11.80;84.40
7447;DHT22;3765;47.962;7.952;2023-08-30T05:37:36;11.90;84.30
7447;DHT22;3765;47.962;7.952;2023-08-30T05:40:06;12.00;84.20
7447;DHT22;3765;47.962;7.952;2023-08-30T05:42:36;12.00;84.20
7447;DHT22;3765;47.962;7.952;2023-08-30T05:45:05;12.10;84.20
7447;DHT22;3765;47.962;7.952;2023-08-30T05:47:33;12.10;84.10
7447;DHT22;3765;47.962;7.952;2023-08-30T05:50:02;12.10;84.10
7447;DHT22;3765;47.962;7.952;2023-08-30T05:52:31;12.20;84.00
7447;DHT22;3765;47.962;7.952;2023-08-30T05:55:00;12.30;84.00
7447;DHT22;3765;47.962;7.952;2023-08-30T05:57:28;12.40;83.90
7447;DHT22;3765;47.962;7.952;2023-08-30T06:00:02;12.40;83.80
7447;DHT22;3765;47.962;7.952;2023-08-30T06:02:31;12.50;83.70
7447;DHT22;3765;47.962;7.952;2023-08-30T06:05:00;12.70;83.70
7447;DHT22;3765;47.962;7.952;2023-08-30T06:07:28;12.90;83.50
7447;DHT22;3765;47.962;7.952;2023-08-30T06:09:56;13.00;83.20
7447;DHT22;3765;47.962;7.952;2023-08-30T06:12:25;13.00;83.10
7447;DHT22;3765;47.962;7.952;2023-08-30T06:14:53;13.00;83.00
7447;DHT22;3765;47.962;7.952;2023-08-30T06:17:23;13.10;82.90
7447;DHT22;3765;47.962;7.952;2023-08-30T06:19:51;13.20;82.80
7447;DHT22;3765;47.962;7.952;2023-08-30T06:22:19;13.30;82.70
7447;DHT22;3765;47.962;7.952;2023-08-30T06:24:48;13.40;82.60
7447;DHT22;3765;47.962;7.952;2023-08-30T06:27:16;13.40;82.50
7447;DHT22;3765;47.962;7.952;2023-08-30T06:29:44;13.60;82.40
7447;DHT22;3765;47.962;7.952;2023-08-30T06:32:12;13.60;82.30
7447;DHT22;3765;47.962;7.952;2023-08-30T06:34:42;13.70;82.10
7447;DHT22;3765;47.962;7.952;2023-08-30T06:37:10;13.70;82.00
7447;DHT22;3765;47.962;7.952;2023-08-30T06:39:39;13.80;82.00
7447;DHT22;3765;47.962;7.952;2023-08-30T06:42:07;13.80;81.80
7447;DHT22;3765;47.962;7.952;2023-08-30T06:44:35;13.80;81.70
7447;DHT22;3765;47.962;7.952;2023-08-30T06:47:03;13.80;81.70
7447;DHT22;3765;47.962;7.952;2023-08-30T06:49:32;13.90;81.60
7447;DHT22;3765;47.962;7.952;2023-08-30T06:52:02;14.00;81.40
7447;DHT22;3765;47.962;7.952;2023-08-30T06:54:34;14.00;81.40
7447;DHT22;3765;47.962;7.952;2023-08-30T06:57:03;14.00;81.40
7447;DHT22;3765;47.962;7.952;2023-08-30T06:59:33;13.90;81.50
7447;DHT22;3765;47.962;7.952;2023-08-30T07:02:02;14.00;81.40
7447;DHT22;3765;47.962;7.952;2023-08-30T07:04:30;13.80;81.20
7447;DHT22;3765;47.962;7.952;2023-08-30T07:06:59;13.80;81.40
7447;DHT22;3765;47.962;7.952;2023-08-30T07:09:28;14.00;81.70
7447;DHT22;3765;47.962;7.952;2023-08-30T07:11:59;14.10;81.40
7447;DHT22;3765;47.962;7.952;2023-08-30T07:14:27;14.30;81.10
7447;DHT22;3765;47.962;7.952;2023-08-30T07:16:55;14.30;80.90
7447;DHT22;3765;47.962;7.952;2023-08-30T07:19:24;14.30;81.00
7447;DHT22;3765;47.962;7.952;2023-08-30T07:21:53;14.50;80.90
7447;DHT22;3765;47.962;7.952;2023-08-30T07:24:21;14.60;80.80
7447;DHT22;3765;47.962;7.952;2023-08-30T07:26:51;14.80;80.30
7447;DHT22;3765;47.962;7.952;2023-08-30T07:29:19;14.80;80.30
7447;DHT22;3765;47.962;7.952;2023-08-30T07:31:47;14.90;80.20
7447;DHT22;3765;47.962;7.952;2023-08-30T07:34:18;15.10;80.00
7447;DHT22;3765;47.962;7.952;2023-08-30T07:36:46;15.30;79.70
7447;DHT22;3765;47.962;7.952;2023-08-30T07:39:14;15.30;79.40
7447;DHT22;3765;47.962;7.952;2023-08-30T07:41:43;15.30;78.80
7447;DHT22;3765;47.962;7.952;2023-08-30T07:44:12;15.30;78.90
7447;DHT22;3765;47.962;7.952;2023-08-30T07:46:41;15.40;78.80
7447;DHT22;3765;47.962;7.952;2023-08-30T07:49:09;15.40;78.50
7447;DHT22;3765;47.962;7.952;2023-08-30T07:51:37;15.50;78.50
7447;DHT22;3765;47.962;7.952;2023-08-30T07:54:05;15.60;78.40
7447;DHT22;3765;47.962;7.952;2023-08-30T07:56:34;15.80;78.10
7447;DHT22;3765;47.962;7.952;2023-08-30T07:59:03;15.80;77.80
7447;DHT22;3765;47.962;7.952;2023-08-30T08:01:32;16.00;77.90
7447;DHT22;3765;47.962;7.952;2023-08-30T08:04:00;16.20;77.70
7447;DHT22;3765;47.962;7.952;2023-08-30T08:06:34;16.40;77.30
7447;DHT22;3765;47.962;7.952;2023-08-30T08:09:04;16.60;76.90
7447;DHT22;3765;47.962;7.952;2023-08-30T08:11:32;16.70;76.60
7447;DHT22;3765;47.962;7.952;2023-08-30T08:14:01;16.70;76.50
7447;DHT22;3765;47.962;7.952;2023-08-30T08:16:29;16.80;76.30
7447;DHT22;3765;47.962;7.952;2023-08-30T08:18:59;16.70;76.00
7447;DHT22;3765;47.962;7.952;2023-08-30T08:21:28;16.70;75.90
7447;DHT22;3765;47.962;7.952;2023-08-30T08:24:01;16.80;76.00
7447;DHT22;3765;47.962;7.952;2023-08-30T08:26:30;17.00;75.90
7447;DHT22;3765;47.962;7.952;2023-08-30T08:29:02;17.20;75.50
7447;DHT22;3765;47.962;7.952;2023-08-30T08:31:31;17.30;75.30
7447;DHT22;3765;47.962;7.952;2023-08-30T08:34:10;17.50;75.20
7447;DHT22;3765;47.962;7.952;2023-08-30T08:36:41;17.70;74.80
7447;DHT22;3765;47.962;7.952;2023-08-30T08:39:11;17.80;74.50
7447;DHT22;3765;47.962;7.952;2023-08-30T08:41:43;17.90;74.20
7447;DHT22;3765;47.962;7.952;2023-08-30T08:44:18;18.00;73.60
7447;DHT22;3765;47.962;7.952;2023-08-30T08:46:49;17.80;72.70
7447;DHT22;3765;47.962;7.952;2023-08-30T08:49:21;17.70;72.20
7447;DHT22;3765;47.962;7.952;2023-08-30T08:51:51;17.70;72.20
7447;DHT22;3765;47.962;7.952;2023-08-30T08:54:19;17.80;72.50
7447;DHT22;3765;47.962;7.952;2023-08-30T08:56:51;18.00;72.10
7447;DHT22;3765;47.962;7.952;2023-08-30T08:59:21;18.00;71.80
7447;DHT22;3765;47.962;7.952;2023-08-30T09:01:50;18.10;71.90
7447;DHT22;3765;47.962;7.952;2023-08-30T09:04:20;18.00;71.80
7447;DHT22;3765;47.962;7.952;2023-08-30T09:06:49;18.00;72.10
7447;DHT22;3765;47.962;7.952;2023-08-30T09:09:17;18.20;72.10
7447;DHT22;3765;47.962;7.952;2023-08-30T09:11:47;18.30;71.80
7447;DHT22;3765;47.962;7.952;2023-08-30T09:14:18;18.50;71.50
7447;DHT22;3765;47.962;7.952;2023-08-30T09:16:54;18.70;71.10
7447;DHT22;3765;47.962;7.952;2023-08-30T09:19:24;18.70;70.70
7447;DHT22;3765;47.962;7.952;2023-08-30T09:21:52;18.70;70.50
7447;DHT22;3765;47.962;7.952;2023-08-30T09:24:22;18.50;70.20
7447;DHT22;3765;47.962;7.952;2023-08-30T09:26:52;18.50;69.80
7447;DHT22;3765;47.962;7.952;2023-08-30T09:29:21;18.50;69.90
7447;DHT22;3765;47.962;7.952;2023-08-30T09:31:51;18.70;70.10
7447;DHT22;3765;47.962;7.952;2023-08-30T09:34:24;18.90;69.60
7447;DHT22;3765;47.962;7.952;2023-08-30T09:36:52;18.80;69.10
7447;DHT22;3765;47.962;7.952;2023-08-30T09:39:21;18.90;69.30
7447;DHT22;3765;47.962;7.952;2023-08-30T09:41:49;19.10;68.90
7447;DHT22;3765;47.962;7.952;2023-08-30T09:44:19;18.90;68.00
7447;DHT22;3765;47.962;7.952;2023-08-30T09:46:50;19.00;68.20
7447;DHT22;3765;47.962;7.952;2023-08-30T09:49:21;18.80;68.50
7447;DHT22;3765;47.962;7.952;2023-08-30T09:51:52;18.80;68.20
7447;DHT22;3765;47.962;7.952;2023-08-30T09:54:22;18.80;68.50
7447;DHT22;3765;47.962;7.952;2023-08-30T09:56:54;18.70;68.50
7447;DHT22;3765;47.962;7.952;2023-08-30T09:59:25;18.60;69.10
7447;DHT22;3765;47.962;7.952;2023-08-30T10:01:54;18.50;69.60
7447;DHT22;3765;47.962;7.952;2023-08-30T10:04:23;18.70;70.30
7447;DHT22;3765;47.962;7.952;2023-08-30T10:06:56;18.60;70.10
7447;DHT22;3765;47.962;7.952;2023-08-30T10:09:25;18.30;70.30
7447;DHT22;3765;47.962;7.952;2023-08-30T10:11:54;18.20;70.70
7447;DHT22;3765;47.962;7.952;2023-08-30T10:14:23;18.30;71.20
7447;DHT22;3765;47.962;7.952;2023-08-30T10:16:51;18.20;71.00
7447;DHT22;3765;47.962;7.952;2023-08-30T10:19:24;18.20;71.40
7447;DHT22;3765;47.962;7.952;2023-08-30T10:22:00;18.00;71.40
7447;DHT22;3765;47.962;7.952;2023-08-30T10:24:33;17.90;71.50
7447;DHT22;3765;47.962;7.952;2023-08-30T10:27:24;18.10;71.50
7447;DHT22;3765;47.962;7.952;2023-08-30T10:29:53;18.30;71.60
7447;DHT22;3765;47.962;7.952;2023-08-30T10:32:22;18.30;71.40
7447;DHT22;3765;47.962;7.952;2023-08-30T10:34:51;18.40;71.20
7447;DHT22;3765;47.962;7.952;2023-08-30T10:37:25;18.60;70.80
7447;DHT22;3765;47.962;7.952;2023-08-30T10:39:59;18.50;70.80
7447;DHT22;3765;47.962;7.952;2023-08-30T10:42:28;18.50;70.80
7447;DHT22;3765;47.962;7.952;2023-08-30T10:44:58;18.60;70.60
7447;DHT22;3765;47.962;7.952;2023-08-30T10:47:30;18.70;70.40
7447;DHT22;3765;47.962;7.952;2023-08-30T10:50:00;18.70;70.40
7447;DHT22;3765;47.962;7.952;2023-08-30T10:52:32;18.80;70.20
7447;DHT22;3765;47.962;7.952;2023-08-30T10:55:08;18.80;70.00
7447;DHT22;3765;47.962;7.952;2023-08-30T10:57:37;18.80;69.90
7447;DHT22;3765;47.962;7.952;2023-08-30T11:00:11;18.80;69.90
7447;DHT22;3765;47.962;7.952;2023-08-30T11:02:44;18.80;69.40
7447;DHT22;3765;47.962;7.952;2023-08-30T11:05:14;19.10;69.70
7447;DHT22;3765;47.962;7.952;2023-08-30T11:07:45;19.20;69.20
7447;DHT22;3765;47.962;7.952;2023-08-30T11:10:16;19.40;68.70
7447;DHT22;3765;47.962;7.952;2023-08-30T11:12:45;19.30;67.60
7447;DHT22;3765;47.962;7.952;2023-08-30T11:15:16;19.20;67.70
7447;DHT22;3765;47.962;7.952;2023-08-30T11:17:45;19.10;67.90
7447;DHT22;3765;47.962;7.952;2023-08-30T11:20:14;19.30;67.90
7447;DHT22;3765;47.962;7.952;2023-08-30T11:22:46;19.30;67.70
7447;DHT22;3765;47.962;7.952;2023-08-30T11:25:15;19.40;67.30
7447;DHT22;3765;47.962;7.952;2023-08-30T11:27:44;19.60;66.80
7447;DHT22;3765;47.962;7.952;2023-08-30T11:30:13;19.70;66.60
7447;DHT22;3765;47.962;7.952;2023-08-30T11:32:42;20.20;66.50
7447;DHT22;3765;47.962;7.952;2023-08-30T11:35:11;20.50;65.90
7447;DHT22;3765;47.962;7.952;2023-08-30T11:37:40;20.80;65.50
7447;DHT22;3765;47.962;7.952;2023-08-30T11:40:11;20.80;64.60
7447;DHT22;3765;47.962;7.952;2023-08-30T11:42:40;20.70;64.50
7447;DHT22;3765;47.962;7.952;2023-08-30T11:45:09;20.70;64.40
7447;DHT22;3765;47.962;7.952;2023-08-30T11:47:38;20.90;63.90
7447;DHT22;3765;47.962;7.952;2023-08-30T11:50:09;20.80;63.40
7447;DHT22;3765;47.962;7.952;2023-08-30T11:52:39;20.70;63.80
7447;DHT22;3765;47.962;7.952;2023-08-30T11:55:09;20.70;63.60
7447;DHT22;3765;47.962;7.952;2023-08-30T11:57:39;20.50;63.70
7447;DHT22;3765;47.962;7.952;2023-08-30T12:00:12;20.40;63.60
7447;DHT22;3765;47.962;7.952;2023-08-30T12:02:40;20.50;63.70
7447;DHT22;3765;47.962;7.952;2023-08-30T12:05:11;20.50;63.60
7447;DHT22;3765;47.962;7.952;2023-08-30T12:07:39;20.80;63.90
7447;DHT22;3765;47.962;7.952;2023-08-30T12:10:10;21.30;63.60
7447;DHT22;3765;47.962;7.952;2023-08-30T12:12:44;21.50;62.60
7447;DHT22;3765;47.962;7.952;2023-08-30T12:15:14;21.70;61.80
7447;DHT22;3765;47.962;7.952;2023-08-30T12:17:43;21.80;61.90
7447;DHT22;3765;47.962;7.952;2023-08-30T12:20:15;22.00;61.90
7447;DHT22;3765;47.962;7.952;2023-08-30T12:22:44;22.00;61.20
7447;DHT22;3765;47.962;7.952;2023-08-30T12:25:20;21.90;60.60
7447;DHT22;3765;47.962;7.952;2023-08-30T12:27:50;21.80;60.20
7447;DHT22;3765;47.962;7.952;2023-08-30T12:30:19;22.10;60.40
7447;DHT22;3765;47.962;7.952;2023-08-30T12:32:48;22.30;59.30
7447;DHT22;3765;47.962;7.952;2023-08-30T12:35:16;22.20;59.10
7447;DHT22;3765;47.962;7.952;2023-08-30T12:37:44;22.30;59.30
7447;DHT22;3765;47.962;7.952;2023-08-30T12:40:13;22.40;57.30
7447;DHT22;3765;47.962;7.952;2023-08-30T12:42:43;22.40;56.30
7447;DHT22;3765;47.962;7.952;2023-08-30T12:45:11;22.40;55.50
7447;DHT22;3765;47.962;7.952;2023-08-30T12:47:39;22.60;55.60
7447;DHT22;3765;47.962;7.952;2023-08-30T12:50:08;22.80;55.40
7447;DHT22;3765;47.962;7.952;2023-08-30T12:52:36;22.70;54.70
7447;DHT22;3765;47.962;7.952;2023-08-30T12:55:05;22.80;54.90
7447;DHT22;3765;47.962;7.952;2023-08-30T12:57:33;23.20;54.70
7447;DHT22;3765;47.962;7.952;2023-08-30T13:00:04;23.20;54.20
7447;DHT22;3765;47.962;7.952;2023-08-30T13:02:32;23.40;54.00
7447;DHT22;3765;47.962;7.952;2023-08-30T13:05:00;23.30;53.30
7447;DHT22;3765;47.962;7.952;2023-08-30T13:07:29;23.10;53.40
7447;DHT22;3765;47.962;7.952;2023-08-30T13:10:00;23.20;53.30
7447;DHT22;3765;47.962;7.952;2023-08-30T13:12:28;23.20;53.10
7447;DHT22;3765;47.962;7.952;2023-08-30T13:14:56;23.40;52.50
7447;DHT22;3765;47.962;7.952;2023-08-30T13:17:26;23.60;52.60
7447;DHT22;3765;47.962;7.952;2023-08-30T13:19:54;24.10;52.10
7447;DHT22;3765;47.962;7.952;2023-08-30T13:22:23;24.60;51.40
7447;DHT22;3765;47.962;7.952;2023-08-30T13:24:52;24.50;50.50
7447;DHT22;3765;47.962;7.952;2023-08-30T13:27:21;24.10;50.70
7447;DHT22;3765;47.962;7.952;2023-08-30T13:29:49;23.70;50.50
7447;DHT22;3765;47.962;7.952;2023-08-30T13:32:17;24.00;50.50
7447;DHT22;3765;47.962;7.952;2023-08-30T13:34:47;24.30;50.50
7447;DHT22;3765;47.962;7.952;2023-08-30T13:37:15;24.50;50.20
7447;DHT22;3765;47.962;7.952;2023-08-30T13:39:44;24.50;49.80
7447;DHT22;3765;47.962;7.952;2023-08-30T13:42:12;24.80;49.40
7447;DHT22;3765;47.962;7.952;2023-08-30T13:44:40;24.90;49.00
7447;DHT22;3765;47.962;7.952;2023-08-30T13:47:10;24.80;49.30
7447;DHT22;3765;47.962;7.952;2023-08-30T13:49:38;24.40;49.60
7447;DHT22;3765;47.962;7.952;2023-08-30T13:52:08;24.20;50.10
7447;DHT22;3765;47.962;7.952;2023-08-30T13:54:36;24.10;49.60
7447;DHT22;3765;47.962;7.952;2023-08-30T13:57:05;24.20;48.70
7447;DHT22;3765;47.962;7.952;2023-08-30T13:59:33;24.50;49.10
7447;DHT22;3765;47.962;7.952;2023-08-30T14:02:03;25.30;48.60
7447;DHT22;3765;47.962;7.952;2023-08-30T14:04:31;25.40;47.80
7447;DHT22;3765;47.962;7.952;2023-08-30T14:07:01;25.40;47.10
7447;DHT22;3765;47.962;7.952;2023-08-30T14:09:31;25.50;47.10
7447;DHT22;3765;47.962;7.952;2023-08-30T14:12:00;25.40;46.70
7447;DHT22;3765;47.962;7.952;2023-08-30T14:14:31;25.60;46.70
7447;DHT22;3765;47.962;7.952;2023-08-30T14:16:59;25.70;45.60
7447;DHT22;3765;47.962;7.952;2023-08-30T14:19:27;25.80;45.60
7447;DHT22;3765;47.962;7.952;2023-08-30T14:21:55;26.20;45.30
7447;DHT22;3765;47.962;7.952;2023-08-30T14:24:25;26.20;44.70
7447;DHT22;3765;47.962;7.952;2023-08-30T14:26:54;26.40;44.10
7447;DHT22;3765;47.962;7.952;2023-08-30T14:29:22;26.70;44.10
7447;DHT22;3765;47.962;7.952;2023-08-30T14:31:51;26.30;43.20
7447;DHT22;3765;47.962;7.952;2023-08-30T14:34:20;25.80;43.20
7447;DHT22;3765;47.962;7.952;2023-08-30T14:36:48;25.30;43.70
7447;DHT22;3765;47.962;7.952;2023-08-30T14:39:16;24.60;44.10
7447;DHT22;3765;47.962;7.952;2023-08-30T14:41:45;24.00;44.90
7447;DHT22;3765;47.962;7.952;2023-08-30T14:44:15;23.90;45.30
7447;DHT22;3765;47.962;7.952;2023-08-30T14:46:43;23.80;45.60
7447;DHT22;3765;47.962;7.952;2023-08-30T14:49:11;23.70;45.70
7447;DHT22;3765;47.962;7.952;2023-08-30T14:51:40;23.30;45.80
7447;DHT22;3765;47.962;7.952;2023-08-30T14:54:08;23.00;46.70
7447;DHT22;3765;47.962;7.952;2023-08-30T14:56:36;23.10;46.80
7447;DHT22;3765;47.962;7.952;2023-08-30T14:59:04;22.80;46.70
7447;DHT22;3765;47.962;7.952;2023-08-30T15:01:35;22.50;47.30
7447;DHT22;3765;47.962;7.952;2023-08-30T15:04:04;22.50;47.80
7447;DHT22;3765;47.962;7.952;2023-08-30T15:06:33;22.70;47.60
7447;DHT22;3765;47.962;7.952;2023-08-30T15:09:01;22.70;47.80
7447;DHT22;3765;47.962;7.952;2023-08-30T15:11:30;22.60;47.60
7447;DHT22;3765;47.962;7.952;2023-08-30T15:13:58;22.60;47.70
7447;DHT22;3765;47.962;7.952;2023-08-30T15:16:26;22.80;47.20
7447;DHT22;3765;47.962;7.952;2023-08-30T15:18:56;22.60;47.20
7447;DHT22;3765;47.962;7.952;2023-08-30T15:21:24;22.60;47.30
7447;DHT22;3765;47.962;7.952;2023-08-30T15:23:52;22.50;47.40
7447;DHT22;3765;47.962;7.952;2023-08-30T15:26:21;22.20;46.80
7447;DHT22;3765;47.962;7.952;2023-08-30T15:28:49;22.10;47.20
7447;DHT22;3765;47.962;7.952;2023-08-30T15:31:20;21.90;47.10
7447;DHT22;3765;47.962;7.952;2023-08-30T15:33:49;21.80;47.50
7447;DHT22;3765;47.962;7.952;2023-08-30T15:36:18;22.10;47.90
7447;DHT22;3765;47.962;7.952;2023-08-30T15:38:47;22.40;47.50
7447;DHT22;3765;47.962;7.952;2023-08-30T15:41:16;22.70;46.90
7447;DHT22;3765;47.962;7.952;2023-08-30T15:43:44;23.10;46.30
7447;DHT22;3765;47.962;7.952;2023-08-30T15:46:13;25.20;45.70
7447;DHT22;3765;47.962;7.952;2023-08-30T15:48:41;28.10;42.40
7447;DHT22;3765;47.962;7.952;2023-08-30T15:51:12;30.70;39.50
7447;DHT22;3765;47.962;7.952;2023-08-30T15:53:52;31.90;36.90
7447;DHT22;3765;47.962;7.952;2023-08-30T15:56:20;32.00;35.40
7447;DHT22;3765;47.962;7.952;2023-08-30T15:58:49;31.60;34.90
7447;DHT22;3765;47.962;7.952;2023-08-30T16:01:18;31.20;34.50
7447;DHT22;3765;47.962;7.952;2023-08-30T16:03:47;32.50;33.80
7447;DHT22;3765;47.962;7.952;2023-08-30T16:06:16;33.20;33.10
7447;DHT22;3765;47.962;7.952;2023-08-30T16:08:44;33.00;31.90
7447;DHT22;3765;47.962;7.952;2023-08-30T16:11:13;33.00;31.30
7447;DHT22;3765;47.962;7.952;2023-08-30T16:13:42;32.10;31.10
7447;DHT22;3765;47.962;7.952;2023-08-30T16:16:10;31.00;32.10
7447;DHT22;3765;47.962;7.952;2023-08-30T16:18:38;29.50;32.40